Cadiz, KY (42211)

7:23 PM CDT on July 29, 2016 (GMT -0500)
enchanted shores | | Change Station

Elev 404 ft 36.86 °N, 87.94 °W | Updated 51 minutes ago

Scattered Clouds
Scattered Clouds
77.7 °F
Feels Like 80 °F
N
0.0
Wind Variable Wind from East

Today
High -- | Low -- °F
--% Chance of Precip.
Yesterday
High -- | Low -- °F
Precip. -- in
Pressure 29.91 in
Visibility 10.0 miles
Clouds Few 200 ft
Scattered Clouds 1400 ft
Heat Index 80 °F
Dew Point 77 °F
Humidity 99%
Rainfall 0.36 in
Snow Depth Not available.
5:55 AM 8:00 PM
Waning Crescent, 18% visible
METAR KHOP 292358Z AUTO VRB03KT 10SM FEW002 SCT014 23/22 A2992 RMK AO2 LTG DSNT SE RAB20E52 TSB11E34 SLP129 P0031 60037 T02320218 10299 20230 50003
Pressure 29.91 in
Visibility 10.0 miles
Clouds Few 200 ft
Scattered Clouds 1400 ft
Heat Index 80 °F
Dew Point 77 °F
Humidity 99%
Rainfall 0.36 in
Snow Depth Not available.
5:55 AM 8:00 PM
Waning Crescent, 18% visible
METAR KHOP 292358Z AUTO VRB03KT 10SM FEW002 SCT014 23/22 A2992 RMK AO2 LTG DSNT SE RAB20E52 TSB11E34 SLP129 P0031 60037 T02320218 10299 20230 50003

10-Day Weather Forecast

Almanac

Astronomy

Jul. 29, 2016 Rise Set
Actual Time
Civil Twilight
Nautical Twilight
Astronomical Twilight
Moon
Length of Visible Light
Length of Day
Tomorrow will be .
, % of the Moon is Illuminated

Today's Extremes

State Highs State Lows

Community

WunderPhotos

Upload Photos

1,928,449 photos uploaded!

WunderBlog® & News

Nearby

Air Quality

  Air Quality AQ Index Pollutant
Not available.

Snow Depth

Station Depth Elevation

Earthquake Activity

City Distance Mag. Time & Date
Minimum magnitude displayed is 2.5.

Coastal Water Temperatures

Place Temperature

Stations

Nearby Weather Stations

Station Location Temp. Windchill Dew Point Humidity Wind Precip. Elev Updated Type
                   

Watches & Warnings

There are currently no watches in effect.